Time;durP1;ratioP1;P1;durP2;ratioP2;P2;SDS_P1;SDS_P2;PMS_P1;PMS_P2;Temp;Humidity;BMP_temperature;BMP_pressure;BME280_temperature;BME280_humidity;BME280_pressure;Samples;Min_cycle;Max_cycle;Signal;HPM_P1;HPM_P2
2021/12/30 00:01:35;;;;;;;29.63;14.35;;;-8.60;69.60;;;-8.64;96.07;99065.03;5001875;28;121512;-76
2021/12/30 00:04:04;;;;;;;32.67;14.73;;;-8.50;70.30;;;-8.59;95.91;99070.50;5002541;28;129833;-76
2021/12/30 00:06:38;;;;;;;26.67;13.02;;;-8.50;70.00;;;-8.58;95.47;99072.16;4984543;28;128224;-76
2021/12/30 00:09:08;;;;;;;29.17;14.60;;;-8.50;70.70;;;-8.49;95.93;99078.84;5005006;28;119667;-75
2021/12/30 00:11:37;;;;;;;30.52;14.23;;;-8.40;71.60;;;-8.52;95.06;99074.78;4987826;28;119311;-76
2021/12/30 00:14:09;;;;;;;31.13;15.48;;;-8.40;71.50;;;-8.34;95.24;99082.09;4997689;28;128572;-75
2021/12/30 00:16:39;;;;;;;28.58;13.48;;;-8.40;72.40;;;-8.22;94.75;99077.06;5007744;28;130140;-76
2021/12/30 00:19:08;;;;;;;31.30;14.05;;;-8.30;73.10;;;-8.15;94.02;99090.22;5003977;28;120398;-75
2021/12/30 00:21:37;;;;;;;34.22;14.75;;;-8.30;73.00;;;-8.24;94.50;99088.78;5000437;28;119564;-75
2021/12/30 00:24:07;;;;;;;29.48;14.27;;;-8.30;72.30;;;-8.23;94.12;99095.69;5001220;28;129756;-75
2021/12/30 00:26:35;;;;;;;29.75;15.32;;;-8.30;72.00;;;-8.25;94.44;99092.44;4996526;28;129508;-75
2021/12/30 00:29:06;;;;;;;34.75;14.23;;;-8.30;71.70;;;-8.14;94.54;99097.13;4970116;28;119428;-76
2021/12/30 00:31:35;;;;;;;30.17;14.90;;;-8.30;72.20;;;-8.14;94.87;99103.19;4989039;28;119256;-76
2021/12/30 00:34:03;;;;;;;31.73;14.50;;;-8.20;72.30;;;-8.12;94.46;99095.09;5004373;28;129950;-76
2021/12/30 00:36:32;;;;;;;29.05;14.18;;;-8.20;72.20;;;-8.19;94.36;99099.56;5004002;28;129825;-76
2021/12/30 00:39:00;;;;;;;33.83;16.05;;;-8.20;71.50;;;-8.15;94.77;99098.13;5004630;28;119587;-76
2021/12/30 00:41:29;;;;;;;35.40;15.75;;;-8.20;70.50;;;-7.96;93.52;99088.66;5004398;28;119265;-76
2021/12/30 00:43:57;;;;;;;30.73;15.40;;;-8.10;72.10;;;-7.81;94.00;99091.09;5004406;28;129828;-76
2021/12/30 00:46:27;;;;;;;30.13;15.20;;;-8.10;72.10;;;-7.74;93.09;99091.09;5006889;28;129368;-76
2021/12/30 00:48:56;;;;;;;32.75;14.82;;;-8.00;71.10;;;-7.93;93.14;99100.59;4995007;28;121942;-76
2021/12/30 00:51:24;;;;;;;34.47;15.82;;;-8.00;69.80;;;-8.00;93.88;99093.50;5003246;28;122082;-76
2021/12/30 00:53:54;;;;;;;32.85;16.33;;;-8.00;69.00;;;-7.94;93.81;99097.16;5003671;28;130007;-75
2021/12/30 00:56:23;;;;;;;32.83;15.70;;;-8.00;68.50;;;-7.95;94.42;99090.25;5005322;28;128742;-75
2021/12/30 00:58:53;;;;;;;33.00;16.08;;;-8.00;67.40;;;-7.88;94.21;99095.53;5003856;28;119229;-76
2021/12/30 01:01:22;;;;;;;32.45;15.43;;;-7.90;68.00;;;-7.83;93.81;99082.59;5003096;28;119380;-75
2021/12/30 01:03:52;;;;;;;33.05;16.73;;;-7.90;67.80;;;-7.77;92.99;99087.84;5022070;28;129793;-76
2021/12/30 01:06:21;;;;;;;29.27;14.40;;;-7.90;68.60;;;-7.59;93.41;99099.59;5004424;28;129681;-76
2021/12/30 01:08:49;;;;;;;33.50;14.95;;;-7.80;68.90;;;-7.74;92.92;99096.34;5003942;28;120120;-75
2021/12/30 01:11:20;;;;;;;30.40;14.57;;;-7.90;67.10;;;-7.87;93.23;99102.44;4985289;28;120092;-76
2021/12/30 01:13:57;;;;;;;26.85;14.18;;;-7.90;65.50;;;-8.19;94.40;99094.28;4987468;28;129507;-76
2021/12/30 01:16:29;;;;;;;31.58;15.80;;;-7.90;65.00;;;-8.20;95.60;99098.72;5002814;28;129909;-76
2021/12/30 01:19:14;;;;;;;33.72;15.90;;;-7.90;66.00;;;-8.08;95.87;99112.13;5003012;28;119461;-76
2021/12/30 01:21:44;;;;;;;36.10;16.33;;;-7.90;66.50;;;-7.85;94.74;99103.88;4996339;28;119609;-76
2021/12/30 01:24:13;;;;;;;33.58;15.90;;;-7.90;67.20;;;-7.79;94.17;99099.59;5002341;28;129931;-75
2021/12/30 01:26:42;;;;;;;38.20;17.25;;;-7.80;67.30;;;-7.79;94.32;99102.22;4996135;28;129671;-76
2021/12/30 01:29:11;;;;;;;36.40;17.25;;;-7.80;66.60;;;-7.75;93.53;99114.00;5005703;28;119425;-76
2021/12/30 01:31:39;;;;;;;38.95;18.30;;;-7.80;66.00;;;-7.71;94.16;99102.06;4988841;28;118462;-76
2021/12/30 01:34:11;;;;;;;36.30;18.65;;;-7.80;65.90;;;-7.55;93.24;99100.03;4987611;28;128836;-76
2021/12/30 01:36:40;;;;;;;40.00;16.45;;;-7.70;66.80;;;-7.78;93.29;99106.50;5015814;28;128946;-77
2021/12/30 01:39:09;;;;;;;31.23;15.95;;;-7.70;63.90;;;-7.73;94.30;99104.06;4982607;28;122023;-77
2021/12/30 01:41:37;;;;;;;33.30;16.70;;;-7.70;63.30;;;-7.63;93.48;99093.94;5003907;28;122063;-76
2021/12/30 01:44:07;;;;;;;38.13;15.57;;;-7.70;63.40;;;-7.63;94.12;99090.50;5002830;28;130547;-77
2021/12/30 01:46:40;;;;;;;36.58;15.38;;;-7.70;63.00;;;-7.50;93.16;99087.03;5002865;28;129459;-76
2021/12/30 01:49:12;;;;;;;34.30;17.17;;;-7.60;63.20;;;-7.41;92.68;99085.81;5002896;28;119812;-77
2021/12/30 01:51:42;;;;;;;35.40;17.17;;;-7.60;61.90;;;-7.43;92.61;99085.22;5003030;28;119265;-77
2021/12/30 01:54:12;;;;;;;34.75;15.93;;;-7.50;60.50;;;-7.50;92.51;99087.03;4970818;28;129554;-77
2021/12/30 01:56:41;;;;;;;37.65;17.15;;;-7.60;58.60;;;-7.58;93.05;99090.69;4997489;28;128760;-77
2021/12/30 01:59:11;;;;;;;33.92;16.60;;;-7.60;59.50;;;-7.52;93.28;99094.34;5001485;28;119580;-76
2021/12/30 02:01:40;;;;;;;36.85;18.33;;;-7.50;59.40;;;-7.41;93.03;99091.09;5001544;28;119352;-76
2021/12/30 02:04:10;;;;;;;34.42;16.98;;;-7.50;59.30;;;-7.27;92.68;99097.16;5001470;28;131171;-76
2021/12/30 02:06:38;;;;;;;32.03;16.73;;;-7.50;60.00;;;-7.23;92.15;99096.56;5002915;28;130477;-77
2021/12/30 02:09:07;;;;;;;34.65;18.02;;;-7.50;59.90;;;-7.26;91.93;99099.59;5005671;28;119477;-77
2021/12/30 02:11:35;;;;;;;35.42;16.48;;;-7.50;58.20;;;-7.20;91.35;99097.16;5000936;28;119787;-76
2021/12/30 02:14:04;;;;;;;33.97;16.45;;;-7.50;57.80;;;-7.12;91.49;99099.56;4983787;28;128958;-77
2021/12/30 02:16:32;;;;;;;35.25;16.65;;;-7.50;58.00;;;-7.05;91.21;99090.63;5000239;28;129834;-77
2021/12/30 02:19:01;;;;;;;35.55;16.98;;;-7.40;57.70;;;-6.97;90.46;99083.50;5000691;28;119847;-77
2021/12/30 02:21:31;;;;;;;35.33;16.77;;;-7.40;57.30;;;-6.94;90.49;99078.63;4998100;28;119325;-76
2021/12/30 02:24:02;;;;;;;36.78;16.25;;;-7.40;56.60;;;-7.04;90.06;99072.97;5000925;28;130522;-77
2021/12/30 02:26:31;;;;;;;42.75;17.77;;;-7.40;54.60;;;-7.03;89.86;99071.94;5001825;28;129705;-77
2021/12/30 02:28:59;;;;;;;33.83;16.38;;;-7.40;53.00;;;-7.32;90.28;99084.59;4982702;28;122370;-77
2021/12/30 02:31:32;;;;;;;38.22;18.25;;;-7.40;52.40;;;-7.34;91.26;99083.97;5004189;28;122621;-75
2021/12/30 02:34:01;;;;;;;39.67;18.25;;;-7.40;51.40;;;-7.26;90.99;99083.78;5002771;28;129594;-75
2021/12/30 02:36:34;;;;;;;35.63;17.40;;;-7.40;52.60;;;-7.24;90.73;99079.09;5001957;28;129704;-75
2021/12/30 02:39:07;;;;;;;37.33;16.20;;;-7.40;52.20;;;-7.37;91.12;99071.19;4987472;28;118811;-75
2021/12/30 02:41:38;;;;;;;34.45;16.45;;;-7.40;50.20;;;-7.37;91.28;99080.94;5003623;28;119406;-75
2021/12/30 02:44:10;;;;;;;30.67;15.70;;;-7.40;51.00;;;-7.44;91.93;99080.97;5001767;28;130342;-75
2021/12/30 02:46:40;;;;;;;32.35;16.08;;;-7.40;51.00;;;-7.32;91.58;99084.59;4986104;28;127562;-76
2021/12/30 02:49:09;;;;;;;33.55;16.85;;;-7.40;51.00;;;-7.16;91.05;99082.53;5001972;28;120224;-76
2021/12/30 02:51:39;;;;;;;35.83;16.45;;;-7.40;52.20;;;-7.28;91.52;99079.72;4999335;28;119328;-75
2021/12/30 02:54:08;;;;;;;31.42;16.75;;;-7.40;51.40;;;-7.18;91.27;99089.81;4997926;28;130520;-76
2021/12/30 02:56:37;;;;;;;36.30;17.25;;;-7.40;51.70;;;-7.16;91.35;99083.34;5000255;28;130007;-75
2021/12/30 02:59:05;;;;;;;34.50;17.13;;;-7.30;52.50;;;-7.08;90.97;99084.94;5001105;28;119231;-76
2021/12/30 03:01:34;;;;;;;30.92;15.85;;;-7.30;53.20;;;-7.07;91.08;99091.84;4982425;28;117862;-76
2021/12/30 03:04:04;;;;;;;32.95;16.55;;;-7.30;52.60;;;-7.06;90.50;99075.00;4987994;28;130304;-76
2021/12/30 03:06:33;;;;;;;34.15;16.40;;;-7.30;51.90;;;-6.93;90.69;99074.97;5000478;28;129703;-76
2021/12/30 03:09:04;;;;;;;35.28;16.67;;;-7.30;53.40;;;-6.95;91.09;99077.00;4986002;28;118534;-75
2021/12/30 03:11:33;;;;;;;38.83;17.70;;;-7.30;52.20;;;-6.84;90.71;99069.44;5001998;28;119658;-76
2021/12/30 03:14:02;;;;;;;38.20;16.27;;;-7.20;53.10;;;-6.87;90.56;99063.59;5001636;28;130231;-75
2021/12/30 03:16:35;;;;;;;32.42;15.05;;;-7.20;52.00;;;-7.05;91.22;99063.44;5002698;28;129846;-75
2021/12/30 03:19:05;;;;;;;34.40;16.67;;;-7.20;50.90;;;-6.93;91.23;99063.63;5002980;28;121812;-75
2021/12/30 03:21:35;;;;;;;29.73;14.82;;;-7.20;51.60;;;-6.89;90.79;99059.53;5006224;28;120560;-75
2021/12/30 03:24:06;;;;;;;31.25;15.85;;;-7.20;51.30;;;-6.91;90.50;99049.19;4987366;28;129708;-76
2021/12/30 03:26:36;;;;;;;35.75;16.27;;;-7.20;50.50;;;-6.89;90.68;99060.34;4984953;28;129353;-76
2021/12/30 03:29:09;;;;;;;38.47;17.45;;;-7.20;50.60;;;-6.93;90.95;99059.13;5003405;28;119937;-76
2021/12/30 03:31:38;;;;;;;36.40;16.20;;;-7.10;50.10;;;-6.88;90.97;99069.88;5004609;28;119494;-75
2021/12/30 03:34:06;;;;;;;31.10;15.50;;;-7.10;50.30;;;-6.96;90.59;99062.19;4990127;28;129335;-75
2021/12/30 03:36:37;;;;;;;32.50;16.35;;;-7.10;49.60;;;-6.91;91.13;99075.56;5004320;28;131160;-75
2021/12/30 03:39:08;;;;;;;39.75;18.35;;;-7.10;49.30;;;-6.81;90.35;99069.84;4986801;28;119768;-75
2021/12/30 03:41:37;;;;;;;36.28;16.75;;;-7.00;49.60;;;-6.87;90.85;99066.22;5006124;28;119184;-75
2021/12/30 03:44:06;;;;;;;32.40;16.00;;;-7.10;48.00;;;-6.71;89.98;99064.13;5003372;28;130074;-75
2021/12/30 03:46:35;;;;;;;32.30;15.77;;;-7.00;49.60;;;-6.78;90.17;99058.06;5006248;28;130060;-75
2021/12/30 03:49:05;;;;;;;40.33;17.63;;;-7.00;48.80;;;-6.64;89.71;99062.25;5004337;28;119982;-75
2021/12/30 03:51:38;;;;;;;33.38;15.73;;;-6.90;49.10;;;-6.85;89.60;99054.66;5004202;28;118664;-76
2021/12/30 03:54:09;;;;;;;34.15;15.77;;;-7.00;46.30;;;-6.81;89.52;99058.47;4988540;28;129237;-76
2021/12/30 03:56:43;;;;;;;36.95;17.80;;;-7.00;45.60;;;-6.70;89.92;99063.94;4988851;28;129017;-77
2021/12/30 03:59:12;;;;;;;35.30;16.52;;;-7.00;47.10;;;-6.60;89.43;99066.09;5005587;28;120084;-75
2021/12/30 04:01:41;;;;;;;34.25;17.42;;;-6.90;47.30;;;-6.68;89.59;99075.06;5004194;28;119277;-75
2021/12/30 04:04:10;;;;;;;30.92;15.57;;;-6.90;45.80;;;-6.95;89.84;99074.38;5003856;28;129876;-78
2021/12/30 04:06:38;;;;;;;36.35;16.77;;;-6.90;44.60;;;-6.77;90.01;99075.53;5004193;28;128877;-79
2021/12/30 04:09:08;;;;;;;35.97;15.98;;;-6.90;45.60;;;-6.61;89.84;99080.31;5003551;28;121969;-79
2021/12/30 04:11:39;;;;;;;34.70;16.60;;;-6.90;47.00;;;-6.54;89.77;99060.00;5003622;28;122184;-79
2021/12/30 04:14:07;;;;;;;33.58;16.35;;;-6.80;46.20;;;-6.43;88.85;99073.56;4985229;28;129275;-79
2021/12/30 04:16:37;;;;;;;37.47;15.85;;;-6.80;46.60;;;-6.60;89.76;99071.38;5004486;28;129553;-79
2021/12/30 04:19:07;;;;;;;32.72;16.08;;;-6.80;44.10;;;-6.75;89.68;99069.00;5019985;28;119870;-79
2021/12/30 04:21:36;;;;;;;35.17;15.73;;;-6.80;43.30;;;-6.96;90.43;99072.75;5004535;28;119321;-77
2021/12/30 04:24:06;;;;;;;33.00;15.50;;;-6.90;43.20;;;-6.99;90.71;99077.63;4989278;28;129486;-78
2021/12/30 04:26:37;;;;;;;32.28;16.77;;;-6.90;43.00;;;-6.84;90.46;99085.28;5006217;28;127895;-79
2021/12/30 04:29:05;;;;;;;31.13;15.82;;;-6.90;43.00;;;-6.98;90.22;99085.34;5005256;28;119574;-78
2021/12/30 04:31:35;;;;;;;30.40;15.82;;;-6.90;41.20;;;-6.90;90.75;99084.31;4986416;28;118468;-79
2021/12/30 04:34:04;;;;;;;35.08;17.05;;;-6.80;41.80;;;-6.81;90.53;99074.31;5000700;28;129554;-79
2021/12/30 04:36:32;;;;;;;32.03;15.90;;;-6.80;41.90;;;-6.77;90.57;99072.88;4988932;28;129740;-79
2021/12/30 04:39:01;;;;;;;32.00;16.17;;;-6.80;42.70;;;-6.61;90.59;99075.03;5003963;28;119437;-79
2021/12/30 04:41:29;;;;;;;31.33;15.70;;;-6.70;44.00;;;-6.69;89.68;99083.19;5005838;28;118964;-78
2021/12/30 04:44:00;;;;;;;34.63;17.38;;;-6.70;41.90;;;-6.65;90.30;99073.84;4988186;28;129689;-79
2021/12/30 04:46:28;;;;;;;34.30;15.90;;;-6.70;43.10;;;-6.55;89.91;99078.69;5003230;28;129399;-79
2021/12/30 04:48:57;;;;;;;36.63;15.88;;;-6.70;42.80;;;-6.60;89.49;99073.22;5005240;28;119589;-79
2021/12/30 04:51:25;;;;;;;33.13;15.40;;;-6.70;42.60;;;-6.55;89.41;99078.69;5003499;28;119957;-79
2021/12/30 04:53:54;;;;;;;28.70;13.88;;;-6.70;43.10;;;-6.64;89.55;99077.28;4987701;28;128049;-78
2021/12/30 04:56:22;;;;;;;31.50;14.52;;;-6.80;41.30;;;-6.75;90.29;99079.56;5001723;28;130137;-79
2021/12/30 04:58:51;;;;;;;33.22;15.77;;;-6.80;41.20;;;-6.60;89.71;99071.38;5001295;28;121825;-79
2021/12/30 05:01:21;;;;;;;34.33;15.27;;;-6.70;42.20;;;-6.69;89.59;99064.72;4987297;28;121351;-79
2021/12/30 05:03:49;;;;;;;30.35;14.07;;;-6.70;42.20;;;-6.59;90.62;99067.75;5000766;28;129976;-79
2021/12/30 05:06:25;;;;;;;28.67;14.27;;;-6.70;43.30;;;-6.56;89.75;99071.78;5001672;28;128929;-79
2021/12/30 05:08:54;;;;;;;35.35;16.05;;;-6.70;44.10;;;-6.57;90.18;99070.97;5004014;28;119977;-80
2021/12/30 05:11:22;;;;;;;31.73;15.23;;;-6.70;43.00;;;-6.68;90.09;99079.56;5001987;28;119243;-78
2021/12/30 05:13:52;;;;;;;31.42;15.00;;;-6.70;42.80;;;-6.53;90.37;99076.63;5003108;28;130720;-79
2021/12/30 05:16:23;;;;;;;33.67;16.38;;;-6.70;43.50;;;-6.62;90.41;99078.72;4988136;28;130362;-79
2021/12/30 05:18:56;;;;;;;35.33;15.88;;;-6.70;43.40;;;-6.59;90.28;99080.94;4989160;28;119541;-79
2021/12/30 05:21:25;;;;;;;32.88;14.27;;;-6.70;44.10;;;-6.79;91.01;99088.94;5002123;28;119461;-79
2021/12/30 05:23:55;;;;;;;34.88;15.20;;;-6.70;44.60;;;-6.99;92.07;99089.00;5001236;28;129514;-79
2021/12/30 05:26:27;;;;;;;30.27;14.45;;;-6.70;45.20;;;-6.78;92.17;99095.00;5001526;28;130274;-79
2021/12/30 05:28:55;;;;;;;31.77;15.27;;;-6.70;46.90;;;-6.67;91.41;99091.72;5001241;28;120719;-79
2021/12/30 05:31:27;;;;;;;29.08;13.75;;;-6.70;47.80;;;-6.58;91.39;99074.63;5001496;28;119340;-79
2021/12/30 05:33:56;;;;;;;33.88;14.63;;;-6.70;48.10;;;-6.43;90.77;99076.19;5000786;28;129740;-79
2021/12/30 05:36:24;;;;;;;29.17;14.07;;;-6.60;49.10;;;-6.51;90.74;99064.84;5001204;28;129342;-79
2021/12/30 05:38:53;;;;;;;34.40;14.38;;;-6.60;48.70;;;-6.34;91.39;99059.09;5003554;28;119006;-79
2021/12/30 05:41:22;;;;;;;30.13;14.05;;;-6.60;49.80;;;-6.57;90.82;99055.13;5002086;28;119816;-79
2021/12/30 05:43:51;;;;;;;32.83;14.85;;;-6.50;47.80;;;-6.49;91.17;99061.19;5001591;28;129799;-79
2021/12/30 05:46:20;;;;;;;35.58;15.05;;;-6.60;48.00;;;-6.45;91.67;99057.09;5001076;28;129593;-79
2021/12/30 05:48:50;;;;;;;25.42;12.63;;;-6.50;47.20;;;-6.53;91.48;99056.34;5000627;28;122816;-79
2021/12/30 05:51:19;;;;;;;31.33;14.20;;;-6.50;47.40;;;-6.44;91.49;99058.72;4996957;28;121838;-79
2021/12/30 05:53:47;;;;;;;28.23;13.65;;;-6.50;48.30;;;-6.42;91.04;99061.97;5001624;28;130449;-79
2021/12/30 05:56:16;;;;;;;27.60;13.88;;;-6.50;47.90;;;-6.34;90.73;99074.94;5001154;28;129690;-79
2021/12/30 05:58:44;;;;;;;28.10;14.02;;;-6.50;48.00;;;-6.30;90.69;99060.28;5001643;28;119390;-79
2021/12/30 06:01:13;;;;;;;27.48;12.88;;;-6.40;48.00;;;-6.33;90.83;99058.06;5001160;28;119477;-79
2021/12/30 06:03:41;;;;;;;26.75;14.02;;;-6.40;47.70;;;-6.38;91.16;99063.16;5001719;28;129730;-79
2021/12/30 06:06:11;;;;;;;26.38;13.30;;;-6.40;47.80;;;-6.39;91.64;99061.53;5001244;28;129831;-79
2021/12/30 06:08:40;;;;;;;29.02;13.40;;;-6.50;47.70;;;-6.46;91.29;99060.78;4986656;28;118443;-77
2021/12/30 06:11:08;;;;;;;30.00;13.70;;;-6.50;47.00;;;-6.32;91.51;99068.41;5001125;28;119376;-79
2021/12/30 06:13:37;;;;;;;34.28;15.00;;;-6.40;48.30;;;-6.28;90.83;99062.69;5000032;28;130286;-79
2021/12/30 06:16:06;;;;;;;26.73;12.05;;;-6.40;48.20;;;-6.30;90.97;99076.13;5000789;28;129835;-79
2021/12/30 06:18:35;;;;;;;24.45;12.43;;;-6.40;47.80;;;-6.44;90.53;99085.13;5001446;28;119600;-79
2021/12/30 06:21:04;;;;;;;27.92;12.98;;;-6.40;45.90;;;-6.40;91.89;99086.34;4986820;28;119242;-79
2021/12/30 06:23:35;;;;;;;24.70;12.50;;;-6.40;47.60;;;-6.30;91.28;99080.59;5000913;28;129899;-79
2021/12/30 06:26:03;;;;;;;29.38;13.18;;;-6.40;47.80;;;-6.37;91.06;99085.91;4985700;28;129866;-79
2021/12/30 06:28:32;;;;;;;29.67;13.13;;;-6.40;47.50;;;-6.59;91.71;99094.13;4982631;28;119726;-79
2021/12/30 06:31:01;;;;;;;31.20;13.88;;;-6.40;47.20;;;-6.43;92.00;99097.31;5002312;28;119627;-79
2021/12/30 06:33:30;;;;;;;31.50;14.32;;;-6.40;48.20;;;-6.34;91.66;99091.59;5001795;28;129596;-79
2021/12/30 06:35:58;;;;;;;31.75;13.48;;;-6.40;48.90;;;-6.32;91.67;99099.28;5001439;28;129250;-79
2021/12/30 06:38:27;;;;;;;27.55;12.50;;;-6.40;49.20;;;-6.48;91.74;99095.31;4984831;28;123833;-79
2021/12/30 06:40:57;;;;;;;28.15;13.55;;;-6.40;48.50;;;-6.34;91.62;99101.34;4986372;28;121964;-78
2021/12/30 06:43:26;;;;;;;26.92;13.48;;;-6.40;49.40;;;-6.31;92.08;99100.91;4983166;28;129128;-78
2021/12/30 06:45:55;;;;;;;29.85;13.60;;;-6.30;50.00;;;-6.19;92.22;99106.34;4983470;28;128978;-78
2021/12/30 06:48:24;;;;;;;28.27;13.57;;;-6.30;51.10;;;-6.08;91.65;99110.13;5002646;28;119652;-78
2021/12/30 06:50:53;;;;;;;26.00;12.88;;;-6.30;50.50;;;-6.04;91.35;99119.28;5002934;28;119409;-79
2021/12/30 06:53:22;;;;;;;23.70;12.60;;;-6.20;50.60;;;-6.08;91.33;99126.00;5004038;28;130021;-78
2021/12/30 06:55:54;;;;;;;29.67;13.38;;;-6.20;49.30;;;-6.08;91.58;99126.00;5004473;28;129684;-78
2021/12/30 06:58:24;;;;;;;26.73;14.27;;;-6.20;48.70;;;-5.86;90.31;99124.63;5003965;28;119721;-79
2021/12/30 07:00:53;;;;;;;27.65;12.70;;;-6.10;50.20;;;-5.82;90.25;99123.16;4997935;28;120164;-79
2021/12/30 07:03:21;;;;;;;21.67;11.57;;;-6.10;49.00;;;-5.98;91.02;99121.06;5004209;28;130007;-79
2021/12/30 07:05:52;;;;;;;26.83;13.73;;;-6.10;47.40;;;-5.89;90.68;99125.03;4987607;28;129754;-80
2021/12/30 07:08:22;;;;;;;28.13;14.05;;;-6.10;47.30;;;-5.89;90.74;99122.41;4990684;28;118614;-80
2021/12/30 07:10:51;;;;;;;21.65;11.90;;;-6.00;45.80;;;-5.98;90.02;99131.63;4997802;28;119849;-80
2021/12/30 07:13:19;;;;;;;26.92;12.60;;;-6.10;42.70;;;-5.93;90.43;99129.13;5004967;28;129871;-80
2021/12/30 07:15:49;;;;;;;25.15;12.57;;;-6.10;43.10;;;-5.96;89.83;99140.13;4994753;28;129126;-80
2021/12/30 07:18:18;;;;;;;23.38;12.68;;;-6.00;42.70;;;-5.96;90.38;99143.56;5005191;28;119671;-80
2021/12/30 07:20:47;;;;;;;23.58;12.73;;;-6.00;43.10;;;-6.08;90.86;99136.56;4988210;28;119386;-80
2021/12/30 07:23:15;;;;;;;26.80;12.45;;;-6.10;42.10;;;-6.20;91.07;99139.88;5004567;28;130383;-80
2021/12/30 07:25:44;;;;;;;23.95;12.65;;;-6.00;41.50;;;-5.89;91.16;99135.63;5000658;28;130375;-79
2021/12/30 07:28:13;;;;;;;25.77;13.38;;;-6.00;43.30;;;-6.00;91.03;99149.50;4992814;28;122519;-81
2021/12/30 07:30:41;;;;;;;30.35;14.30;;;-6.00;42.20;;;-5.86;90.03;99137.84;5005150;28;122714;-80
2021/12/30 07:33:11;;;;;;;29.95;15.90;;;-5.90;42.00;;;-5.84;89.87;99122.56;5003021;28;130742;-80
2021/12/30 07:35:39;;;;;;;48.10;24.42;;;-5.90;40.10;;;-5.97;90.42;99127.94;5006299;28;129116;-79
2021/12/30 07:38:10;;;;;;;37.97;17.52;;;-5.90;40.60;;;-5.65;90.03;99130.56;5004815;28;120432;-79
2021/12/30 07:40:38;;;;;;;35.83;18.67;;;-5.90;41.70;;;-5.57;89.42;99127.66;4990185;28;118489;-80
2021/12/30 07:43:15;;;;;;;31.20;15.27;;;-5.80;40.60;;;-5.70;88.54;99130.38;5004036;28;130066;-80
2021/12/30 07:45:43;;;;;;;21.85;13.48;;;-5.80;37.30;;;-5.69;88.98;99130.16;5001412;28;129240;-81
2021/12/30 07:48:13;;;;;;;32.75;16.45;;;-5.80;38.40;;;-5.60;89.09;99131.53;5004465;28;119712;-80
2021/12/30 07:50:42;;;;;;;26.98;13.55;;;-5.80;38.90;;;-5.43;88.15;99137.09;4997715;28;119689;-81
2021/12/30 07:53:11;;;;;;;54.20;26.30;;;-5.70;38.10;;;-5.56;88.83;99139.88;5003796;28;129622;-82
2021/12/30 07:55:39;;;;;;;44.35;23.95;;;-5.70;36.80;;;-5.37;88.08;99143.38;5004604;28;130007;-78
2021/12/30 07:58:08;;;;;;;27.33;13.27;;;-5.70;36.60;;;-5.40;87.45;99135.06;4990140;28;119032;-80
2021/12/30 08:00:37;;;;;;;28.90;14.60;;;-5.60;33.60;;;-5.21;86.93;99136.72;5004564;28;119529;-80
2021/12/30 08:03:05;;;;;;;27.30;15.07;;;-5.60;33.10;;;-5.21;86.75;99142.00;5003801;28;130129;-80
2021/12/30 08:05:35;;;;;;;33.35;18.00;;;-5.50;31.40;;;-5.45;86.50;99141.81;5002367;28;128007;-81
2021/12/30 08:08:06;;;;;;;26.85;15.25;;;-5.60;28.80;;;-5.22;86.79;99135.09;5004545;28;119611;-80
2021/12/30 08:10:35;;;;;;;24.92;14.57;;;-5.50;30.90;;;-5.08;85.45;99136.63;5007046;28;119848;-80
2021/12/30 08:13:04;;;;;;;29.42;15.57;;;-5.40;29.10;;;-5.02;85.47;99140.22;5004195;28;130879;-80
2021/12/30 08:15:33;;;;;;;33.88;16.77;;;-5.50;29.30;;;-5.18;85.57;99138.13;4990611;28;129603;-80
2021/12/30 08:18:01;;;;;;;38.78;20.30;;;-5.50;28.30;;;-4.91;85.30;99136.03;5003642;28;122061;-81
2021/12/30 08:20:30;;;;;;;31.63;15.80;;;-5.40;29.20;;;-5.21;85.23;99123.50;5004186;28;121845;-76
2021/12/30 08:23:00;;;;;;;28.55;16.95;;;-5.50;26.80;;;-4.97;85.23;99118.38;4972766;28;128610;-81
2021/12/30 08:25:29;;;;;;;26.52;13.95;;;-5.40;28.00;;;-4.89;85.30;99108.31;5003820;28;129847;-81
2021/12/30 08:27:57;;;;;;;26.10;13.23;;;-5.40;27.20;;;-4.57;84.38;99118.75;5004523;28;119331;-81
2021/12/30 08:30:37;;;;;;;27.20;14.98;;;-5.20;28.50;;;-4.48;83.24;99121.94;4991468;28;119039;-81
2021/12/30 08:33:06;;;;;;;24.17;13.15;;;-5.10;27.10;;;-4.39;83.62;99117.16;5003968;28;130497;-81
2021/12/30 08:35:35;;;;;;;26.58;14.52;;;-5.10;25.40;;;-4.29;82.53;99121.91;5022470;28;129519;-77
2021/12/30 08:38:06;;;;;;;24.98;14.77;;;-5.00;25.30;;;-4.35;82.49;99108.53;5004290;28;119534;-80
2021/12/30 08:40:34;;;;;;;26.70;15.38;;;-5.00;25.60;;;-4.87;83.26;99111.56;5004238;28;118669;-80
2021/12/30 08:43:04;;;;;;;26.88;14.65;;;-5.20;22.60;;;-5.03;84.78;99108.66;5005867;28;130421;-79
2021/12/30 08:45:33;;;;;;;32.03;15.90;;;-5.30;24.50;;;-5.13;85.17;99117.91;4988934;28;128785;-79
2021/12/30 08:48:02;;;;;;;33.03;18.60;;;-5.30;25.60;;;-4.86;84.84;99117.69;5004626;28;120148;-80
2021/12/30 08:50:31;;;;;;;28.55;14.70;;;-5.20;27.30;;;-4.79;85.09;99112.31;5002913;28;119381;-79
2021/12/30 08:52:59;;;;;;;28.70;14.15;;;-5.20;27.30;;;-4.51;84.47;99114.41;4988449;28;128836;-79
2021/12/30 08:55:30;;;;;;;29.52;16.77;;;-5.10;27.90;;;-4.37;83.45;99099.97;5006503;28;130491;-78
2021/12/30 08:57:59;;;;;;;47.70;25.98;;;-5.00;27.10;;;-4.23;83.39;99099.81;5004089;28;119525;-76
2021/12/30 09:00:31;;;;;;;51.55;24.13;;;-4.90;27.60;;;-4.36;83.51;99092.84;5004069;28;119503;-76
2021/12/30 09:03:04;;;;;;;41.97;20.95;;;-4.90;25.00;;;-4.21;83.24;99087.13;5006702;28;129717;-77
2021/12/30 09:05:34;;;;;;;32.30;17.65;;;-4.90;25.90;;;-4.34;82.59;99096.88;4990201;28;129104;-78
2021/12/30 09:08:03;;;;;;;36.28;19.27;;;-4.90;23.90;;;-4.59;83.58;99085.59;5003692;28;121714;-77
2021/12/30 09:10:40;;;;;;;42.70;24.92;;;-5.00;23.90;;;-4.44;82.99;99077.25;5007009;28;122012;-77
2021/12/30 09:13:09;;;;;;;33.47;18.63;;;-4.90;24.40;;;-4.26;83.66;99082.50;5003253;28;129857;-78
2021/12/30 09:15:38;;;;;;;27.67;17.48;;;-4.90;25.10;;;-4.28;83.77;99081.94;4973255;28;128590;-77
2021/12/30 09:18:08;;;;;;;28.55;16.13;;;-4.80;25.10;;;-4.04;82.47;99077.50;5004817;28;119694;-77
2021/12/30 09:20:40;;;;;;;34.17;19.58;;;-4.80;24.70;;;-4.23;82.21;99081.25;5006810;28;119607;-78
2021/12/30 09:23:11;;;;;;;31.63;18.40;;;-4.80;23.80;;;-4.43;82.85;99079.66;5004131;28;129699;-77
2021/12/30 09:25:41;;;;;;;30.33;16.90;;;-4.90;23.90;;;-4.38;84.18;99077.19;5006457;28;129988;-78
2021/12/30 09:28:12;;;;;;;32.38;16.77;;;-4.90;25.90;;;-4.62;84.08;99072.81;4989720;28;118957;-77
2021/12/30 09:30:43;;;;;;;35.50;18.75;;;-5.00;25.40;;;-4.60;84.44;99073.38;4989059;28;118657;-76
2021/12/30 09:33:15;;;;;;;33.55;17.40;;;-5.00;26.50;;;-4.60;85.04;99065.44;4988006;28;130408;-77
2021/12/30 09:35:47;;;;;;;35.35;18.17;;;-5.00;27.00;;;-4.59;84.86;99064.41;4982066;28;128755;-77
2021/12/30 09:38:16;;;;;;;31.00;16.13;;;-5.00;26.40;;;-4.65;85.57;99057.34;5004322;28;119827;-78
2021/12/30 09:40:47;;;;;;;30.55;17.17;;;-5.00;27.10;;;-4.45;84.79;99044.66;5004924;28;119786;-77
2021/12/30 09:43:16;;;;;;;33.00;17.15;;;-4.90;27.70;;;-4.22;84.38;99046.59;4988070;28;129577;-76
2021/12/30 09:45:46;;;;;;;33.85;17.20;;;-4.80;27.80;;;-4.14;83.73;99050.75;4996384;28;129617;-76
2021/12/30 09:48:16;;;;;;;33.42;17.13;;;-4.80;27.10;;;-4.42;83.47;99054.00;5004324;28;119934;-75
2021/12/30 09:50:49;;;;;;;35.78;18.85;;;-4.80;25.00;;;-4.36;84.63;99048.59;5004767;28;119795;-77
2021/12/30 09:53:21;;;;;;;33.97;17.10;;;-4.80;27.60;;;-4.17;83.81;99056.50;5002233;28;130460;-77
2021/12/30 09:55:53;;;;;;;34.97;16.60;;;-4.70;26.80;;;-4.47;84.47;99061.78;4982630;28;129120;-76
2021/12/30 09:58:22;;;;;;;31.15;17.65;;;-4.70;24.90;;;-4.19;84.32;99062.03;5002142;28;120923;-76
2021/12/30 10:00:51;;;;;;;34.45;18.50;;;-4.70;27.10;;;-4.33;84.20;99047.38;4988576;28;121469;-76
2021/12/30 10:03:19;;;;;;;32.67;18.08;;;-4.70;25.80;;;-4.14;84.57;99050.75;5002534;28;130078;-76
2021/12/30 10:05:48;;;;;;;36.42;18.10;;;-4.70;27.70;;;-4.51;85.98;99048.19;5002778;28;130051;-76
2021/12/30 10:08:21;;;;;;;36.60;18.83;;;-4.70;27.70;;;-4.54;86.60;99040.69;5002523;28;119374;-77
2021/12/30 10:10:54;;;;;;;37.70;19.27;;;-4.80;29.90;;;-4.30;86.29;99024.88;4988318;28;119003;-77